This is the latest recevied weather packets stored in our database for station/object K3RTA-2. If no packets are shown the sender has not sent any weather packets the latest 10 day(s).
| Time | Temp. | Humidity | Pressure | Rain* | Wind** | Luminosity | Snow |
|---|---|---|---|---|---|---|---|
| 1777891504 | 10.56° C | 85% | 1016.5 hPa | 0 mm | - | - | - |
| 1777890304 | 10° C | 85% | 1016.4 hPa | 0 mm | - | - | - |
| 1777888504 | 10.56° C | 84% | 1016.3 hPa | 0 mm | - | - | - |
| 1777887904 | 10.56° C | 84% | 1016.4 hPa | 0 mm | - | - | - |
| 1777883103 | 9.44° C | 83% | 1016.8 hPa | 0 mm | - | - | - |
| 1777882804 | 9.44° C | 83% | 1016.8 hPa | 0 mm | - | - | - |
| 1777882204 | 9.44° C | 83% | 1016.8 hPa | 0 mm | - | - | - |
| 1777880104 | 8.89° C | 81% | 1016.9 hPa | 0 mm | - | - | - |
| 1777878605 | 8.89° C | 77% | 1016.9 hPa | 0 mm | - | - | - |
| 1777878004 | 8.89° C | 75% | 1017 hPa | 0 mm | - | - | - |
| 1777875604 | 8.33° C | 71% | 1016.8 hPa | 0 mm | - | - | - |
| 1777871704 | 6.11° C | 77% | 1016.9 hPa | 0 mm | - | - | - |
| 1777870804 | 5.56° C | 77% | 1016.7 hPa | 0 mm | - | - | - |
| 1777869604 | 5.56° C | 77% | 1016.7 hPa | 0 mm | - | - | - |
| 1777867505 | 6.11° C | 75% | 1016.3 hPa | 0 mm | - | - | - |
| 1777863904 | 6.11° C | 74% | 1016 hPa | 0 mm | - | - | - |
| 1777863604 | 6.67° C | 73% | 1016.1 hPa | 0 mm | - | - | - |
| 1777860604 | 7.22° C | 71% | 1016 hPa | 0 mm | - | - | - |
| 1777859705 | 7.22° C | 70% | 1015.8 hPa | 0 mm | - | - | - |
| 1777857604 | 8.33° C | 66% | 1015.6 hPa | 0 mm | - | - | - |
| 1777856704 | 8.33° C | 64% | 1015.4 hPa | 0 mm | - | - | - |
| 1777855504 | 9.44° C | 61% | 1015.3 hPa | 0 mm | - | - | - |
| 1777851604 | 12.78° C | 47% | 1014.7 hPa | 0 mm | - | - | - |
| 1777851304 | 13.33° C | 46% | 1014.7 hPa | 0 mm | - | - | - |
| 1777849805 | 13.89° C | 45% | 1014.6 hPa | 0 mm | - | - | - |
* Rain latest hour (hover to see other rain measurements)
** Current wind speed in m/s (hover to see current wind gust speed)